createdAt,value
2022-12-20T00:00:57.940Z,223.09
2022-12-20T00:02:03.994Z,221.28
2022-12-20T00:03:07.466Z,222.44
2022-12-20T00:04:15.702Z,228.92
2022-12-20T00:05:19.942Z,228.97
2022-12-20T00:06:27.614Z,240.20
2022-12-20T00:07:31.101Z,235.64
2022-12-20T00:08:38.333Z,237.54
2022-12-20T00:09:41.764Z,245.71
2022-12-20T00:10:51.207Z,246.27
2022-12-20T00:11:54.769Z,236.73
2022-12-20T00:13:00.807Z,230.74
2022-12-20T00:14:04.266Z,248.69
2022-12-20T00:15:11.391Z,231.33
2022-12-20T00:16:19.454Z,226.90
2022-12-20T00:17:25.795Z,242.68
2022-12-20T00:18:29.240Z,222.57
2022-12-20T00:19:35.233Z,224.69
2022-12-20T00:20:38.748Z,238.68
2022-12-20T00:21:45.503Z,235.10
2022-12-20T00:22:49.597Z,250.50
2022-12-20T00:24:01.573Z,219.10
2022-12-20T00:25:05.989Z,224.84
2022-12-20T00:26:17.559Z,238.26
2022-12-20T00:27:22.383Z,224.05
2022-12-20T00:28:28.491Z,231.99
2022-12-20T00:29:35.403Z,240.40
2022-12-20T00:30:38.792Z,216.28
2022-12-20T00:31:44.996Z,221.44
2022-12-20T00:32:49.317Z,217.70
2022-12-20T00:33:58.742Z,221.35
2022-12-20T00:35:02.000Z,220.57
2022-12-20T00:36:09.790Z,214.52
2022-12-20T00:37:13.153Z,217.85
2022-12-20T00:38:20.197Z,213.04
2022-12-20T00:39:23.380Z,213.71
2022-12-20T00:40:29.384Z,210.02
2022-12-20T00:41:36.450Z,201.51
2022-12-20T00:42:42.390Z,212.82
2022-12-20T00:43:47.556Z,219.82
2022-12-20T00:44:53.534Z,214.39
2022-12-20T00:45:57.332Z,218.50
2022-12-20T00:47:03.365Z,203.81
2022-12-20T00:48:07.283Z,214.35
2022-12-20T00:49:14.448Z,207.03
2022-12-20T00:50:18.051Z,206.10
2022-12-20T00:51:27.679Z,215.89
2022-12-20T00:52:31.178Z,206.54
2022-12-20T00:53:38.038Z,198.50
2022-12-20T00:54:42.456Z,195.92
2022-12-20T00:55:50.301Z,211.45
2022-12-20T00:56:58.757Z,206.49
2022-12-20T00:58:02.003Z,209.73
2022-12-20T00:59:07.851Z,225.43
2022-12-20T01:00:13.498Z,216.35
2022-12-20T01:01:24.226Z,236.98
2022-12-20T01:02:27.900Z,225.27
2022-12-20T01:03:34.117Z,224.83
2022-12-20T01:04:38.631Z,222.40
2022-12-20T01:05:54.770Z,224.89
2022-12-20T01:06:58.611Z,231.07
2022-12-20T01:08:04.950Z,223.49
2022-12-20T01:09:08.291Z,211.27
2022-12-20T01:10:15.221Z,210.54
2022-12-20T01:11:23.097Z,203.68
2022-12-20T01:12:31.540Z,231.40
2022-12-20T01:13:39.045Z,227.08
2022-12-20T01:14:45.369Z,212.80
2022-12-20T01:15:49.986Z,203.68
2022-12-20T01:16:57.315Z,212.36
2022-12-20T01:18:01.074Z,212.99
2022-12-20T01:19:08.081Z,214.02
2022-12-20T01:20:12.727Z,203.28
2022-12-20T01:21:22.042Z,198.87
2022-12-20T01:22:26.239Z,201.79
2022-12-20T01:23:32.746Z,200.30
2022-12-20T01:24:38.634Z,206.15
2022-12-20T01:25:41.902Z,194.93
2022-12-20T01:26:49.325Z,208.61
2022-12-20T01:27:57.952Z,205.16
2022-12-20T01:29:04.321Z,205.41
2022-12-20T01:30:10.468Z,198.50
2022-12-20T01:31:20.408Z,199.58
2022-12-20T01:32:23.788Z,202.46
2022-12-20T01:33:30.801Z,205.68
2022-12-20T01:34:34.235Z,203.76
2022-12-20T01:35:40.166Z,209.81
2022-12-20T01:36:43.519Z,208.28
2022-12-20T01:37:49.614Z,213.33
2022-12-20T01:38:58.479Z,213.85
2022-12-20T01:40:04.445Z,217.36
2022-12-20T01:41:08.621Z,218.39
2022-12-20T01:42:18.020Z,217.34
2022-12-20T01:43:25.714Z,221.34
2022-12-20T01:45:10.850Z,218.63
2022-12-20T01:46:14.349Z,225.94
2022-12-20T01:47:21.545Z,223.75
2022-12-20T01:48:27.739Z,218.74
2022-12-20T01:49:41.630Z,217.45
2022-12-20T01:50:45.528Z,218.39
2022-12-20T01:51:59.441Z,226.48
2022-12-20T01:53:06.051Z,215.70
2022-12-20T01:54:22.208Z,214.58
2022-12-20T01:55:30.746Z,212.68
2022-12-20T01:56:39.320Z,219.61
2022-12-20T01:57:52.061Z,222.80
2022-12-20T01:59:03.851Z,211.73
2022-12-20T02:00:10.099Z,215.24
2022-12-20T02:01:23.453Z,211.20
2022-12-20T02:02:28.189Z,223.96
2022-12-20T02:03:35.970Z,204.97
2022-12-20T02:04:39.818Z,221.75
2022-12-20T02:05:49.788Z,229.88
2022-12-20T02:06:54.554Z,225.14
2022-12-20T02:08:01.236Z,219.70
2022-12-20T02:09:08.702Z,225.20
2022-12-20T02:10:16.655Z,222.08
2022-12-20T02:12:03.989Z,212.05
2022-12-20T02:13:35.406Z,222.40
2022-12-20T02:15:09.820Z,215.90
2022-12-20T02:16:25.230Z,219.02
2022-12-20T02:17:53.392Z,213.50
2022-12-20T02:19:18.008Z,212.32
2022-12-20T02:21:01.319Z,216.87
2022-12-20T02:22:26.531Z,222.84
2022-12-20T02:24:04.864Z,219.08
2022-12-20T02:25:49.562Z,210.21
2022-12-20T02:27:46.509Z,210.55
2022-12-20T02:29:23.896Z,206.83
2022-12-20T02:30:47.464Z,199.77
2022-12-20T02:32:05.369Z,202.41
2022-12-20T02:33:17.524Z,203.05
2022-12-20T02:34:26.302Z,211.94
2022-12-20T02:35:36.322Z,205.18
2022-12-20T02:36:40.255Z,212.95
2022-12-20T02:38:00.830Z,217.19
2022-12-20T02:39:05.132Z,197.57
2022-12-20T02:40:13.570Z,210.55
2022-12-20T02:41:25.918Z,206.61
2022-12-20T02:42:36.955Z,203.14
2022-12-20T02:44:01.405Z,203.43
2022-12-20T02:45:18.384Z,203.59
2022-12-20T02:46:31.008Z,205.77
2022-12-20T02:47:43.104Z,210.10
2022-12-20T02:48:54.929Z,203.60
2022-12-20T02:49:59.072Z,210.45
2022-12-20T02:51:11.736Z,203.53
2022-12-20T02:52:18.333Z,207.72
2022-12-20T02:53:26.627Z,207.17
2022-12-20T02:54:31.233Z,207.20
2022-12-20T02:55:51.097Z,217.16
2022-12-20T02:57:06.679Z,211.48
2022-12-20T02:58:29.504Z,211.95
2022-12-20T02:59:45.576Z,209.50
2022-12-20T03:00:59.701Z,210.44
2022-12-20T03:02:09.034Z,209.66
2022-12-20T03:03:25.231Z,215.65
2022-12-20T03:04:38.161Z,222.03
2022-12-20T03:05:48.090Z,220.07
2022-12-20T03:07:05.143Z,220.72
2022-12-20T03:08:09.532Z,210.96
2022-12-20T03:09:15.431Z,218.83
2022-12-20T03:10:20.677Z,222.37
2022-12-20T03:11:26.823Z,231.26
2022-12-20T03:12:30.251Z,213.06
2022-12-20T03:13:37.022Z,212.73
2022-12-20T03:14:44.750Z,213.64
2022-12-20T03:15:53.086Z,211.76
2022-12-20T03:16:56.691Z,197.56
2022-12-20T03:18:05.457Z,206.09
2022-12-20T03:19:09.659Z,207.35
2022-12-20T03:20:16.322Z,198.48
2022-12-20T03:21:19.934Z,205.45
2022-12-20T03:22:26.280Z,215.20
2022-12-20T03:23:29.684Z,216.88
2022-12-20T03:24:36.845Z,219.85
2022-12-20T03:25:44.905Z,228.22
2022-12-20T03:26:57.259Z,224.24
2022-12-20T03:28:01.536Z,257.47
2022-12-20T03:29:08.557Z,252.86
2022-12-20T03:30:15.330Z,243.26
2022-12-20T03:31:21.503Z,245.21
2022-12-20T03:32:28.539Z,243.65
2022-12-20T03:33:37.491Z,240.35
2022-12-20T03:34:43.472Z,231.02
2022-12-20T03:35:52.186Z,230.21
2022-12-20T03:36:55.607Z,238.49
2022-12-20T03:38:01.543Z,248.55
2022-12-20T03:39:05.577Z,240.85
2022-12-20T03:40:17.360Z,252.07
2022-12-20T03:41:23.999Z,250.23
2022-12-20T03:42:32.096Z,252.62
2022-12-20T03:43:35.530Z,267.51
2022-12-20T03:44:41.798Z,262.86
2022-12-20T03:45:46.043Z,265.89
2022-12-20T03:46:52.738Z,259.08
2022-12-20T03:47:57.430Z,260.04
2022-12-20T03:49:08.900Z,255.88
2022-12-20T03:50:20.244Z,260.53
2022-12-20T03:51:26.243Z,262.47
2022-12-20T03:52:30.378Z,255.80
2022-12-20T03:53:36.702Z,249.44
2022-12-20T03:54:40.326Z,257.48
2022-12-20T03:55:53.103Z,258.85
2022-12-20T03:56:56.576Z,251.26
2022-12-20T03:58:03.457Z,251.76
2022-12-20T03:59:12.449Z,247.66
2022-12-20T04:00:20.869Z,250.00
2022-12-20T04:01:36.805Z,259.37
2022-12-20T04:02:40.816Z,252.89
2022-12-20T04:03:49.593Z,269.54
2022-12-20T04:04:58.330Z,269.13
2022-12-20T04:06:02.092Z,299.87
2022-12-20T04:07:08.026Z,296.52
2022-12-20T04:08:13.459Z,283.25
2022-12-20T04:09:20.309Z,299.20
2022-12-20T04:10:28.771Z,273.94
2022-12-20T04:11:36.175Z,277.58
2022-12-20T04:12:44.193Z,284.23
2022-12-20T04:13:55.966Z,275.79
2022-12-20T04:15:00.638Z,274.26
2022-12-20T04:16:08.949Z,304.09
2022-12-20T04:17:12.273Z,298.79
2022-12-20T04:18:20.201Z,296.08
2022-12-20T04:19:27.019Z,297.64
2022-12-20T04:20:33.988Z,296.54
2022-12-20T04:22:02.670Z,272.60
2022-12-20T04:23:16.398Z,281.02
2022-12-20T04:24:23.687Z,276.59
2022-12-20T04:25:47.061Z,272.26
2022-12-20T04:26:55.345Z,271.43
2022-12-20T04:27:58.729Z,269.03
2022-12-20T04:29:04.929Z,278.02
2022-12-20T04:30:11.962Z,290.07
2022-12-20T04:31:23.779Z,283.66
2022-12-20T04:32:28.845Z,285.35
2022-12-20T04:33:35.609Z,288.12
2022-12-20T04:34:39.016Z,261.09
2022-12-20T04:35:47.697Z,260.15
2022-12-20T04:36:51.921Z,270.57
2022-12-20T04:38:07.926Z,271.61
2022-12-20T04:39:11.231Z,278.13
2022-12-20T04:40:27.721Z,277.27
2022-12-20T04:41:36.804Z,276.89
2022-12-20T04:42:46.637Z,260.60
2022-12-20T04:43:57.610Z,268.85
2022-12-20T04:45:08.596Z,284.47
2022-12-20T04:46:14.552Z,285.49
2022-12-20T04:47:17.907Z,280.71
2022-12-20T04:49:48.385Z,278.20
2022-12-20T04:50:59.285Z,299.88
2022-12-20T04:52:18.603Z,293.85
2022-12-20T04:53:39.262Z,290.32
2022-12-20T04:54:42.820Z,304.68
2022-12-20T04:55:56.021Z,278.57
2022-12-20T04:57:00.384Z,295.22
2022-12-20T04:58:07.892Z,327.96
2022-12-20T04:59:17.004Z,294.38
2022-12-20T05:00:23.373Z,284.14
2022-12-20T05:01:37.888Z,315.59
2022-12-20T05:02:41.959Z,363.81
2022-12-20T05:03:52.312Z,351.86
2022-12-20T05:04:57.128Z,301.74
2022-12-20T05:06:05.802Z,410.04
2022-12-20T05:07:09.865Z,386.05
2022-12-20T05:08:18.577Z,321.29
2022-12-20T05:09:26.489Z,315.02
2022-12-20T05:10:32.757Z,296.47
2022-12-20T05:11:41.047Z,308.38
2022-12-20T05:12:45.869Z,335.29
2022-12-20T05:14:00.123Z,311.33
2022-12-20T05:15:03.565Z,297.57
2022-12-20T05:16:10.987Z,286.89
2022-12-20T05:17:15.012Z,258.68
2022-12-20T05:18:21.103Z,290.12
2022-12-20T05:19:32.033Z,286.04
2022-12-20T05:20:39.355Z,271.09
2022-12-20T05:22:12.785Z,275.78
2022-12-20T05:23:34.921Z,305.89
2022-12-20T05:25:03.263Z,301.55
2022-12-20T05:26:24.824Z,290.66
2022-12-20T05:27:32.561Z,289.58
2022-12-20T05:28:37.636Z,280.55
2022-12-20T05:29:43.823Z,311.23
2022-12-20T05:30:47.274Z,318.58
2022-12-20T05:31:55.928Z,285.50
2022-12-20T05:33:00.613Z,320.83
2022-12-20T05:34:07.492Z,314.25
2022-12-20T05:35:13.239Z,284.45
2022-12-20T05:36:19.606Z,301.85
2022-12-20T05:37:27.397Z,294.38
2022-12-20T05:38:36.745Z,317.61
2022-12-20T05:39:46.865Z,320.65
2022-12-20T05:40:58.792Z,308.63
2022-12-20T05:42:02.810Z,311.97
2022-12-20T05:43:09.279Z,334.93
2022-12-20T05:44:22.483Z,317.57
2022-12-20T05:45:29.188Z,345.99
2022-12-20T05:46:41.010Z,333.26
2022-12-20T05:47:49.381Z,333.54
2022-12-20T05:48:55.702Z,332.02
2022-12-20T05:50:01.334Z,347.80
2022-12-20T05:51:12.526Z,350.68
2022-12-20T05:52:38.705Z,398.14
2022-12-20T05:53:45.563Z,404.89
2022-12-20T05:54:50.528Z,414.08
2022-12-20T05:55:58.897Z,369.13
2022-12-20T05:57:06.226Z,364.60
2022-12-20T05:58:16.502Z,364.95
2022-12-20T05:59:31.460Z,513.26
2022-12-20T06:00:34.910Z,459.91
2022-12-20T06:01:41.944Z,486.52
2022-12-20T06:02:46.010Z,380.34
2022-12-20T06:03:53.022Z,414.61
2022-12-20T06:04:59.334Z,409.10
2022-12-20T06:06:10.118Z,416.00
2022-12-20T06:07:19.740Z,392.52
2022-12-20T06:08:32.053Z,406.90
2022-12-20T06:09:37.556Z,441.99
2022-12-20T06:10:47.159Z,447.66
2022-12-20T06:11:51.713Z,396.18
2022-12-20T06:12:58.545Z,340.59
2022-12-20T06:14:02.705Z,355.22
2022-12-20T06:15:11.088Z,338.72
2022-12-20T06:16:20.903Z,380.08
2022-12-20T06:17:24.482Z,346.73
2022-12-20T06:18:32.388Z,330.13
2022-12-20T06:19:40.344Z,305.98
2022-12-20T06:20:53.857Z,327.09
2022-12-20T06:22:01.387Z,348.02
2022-12-20T06:23:27.677Z,344.81
2022-12-20T06:24:48.553Z,311.65
2022-12-20T06:25:58.256Z,341.64
2022-12-20T06:27:07.255Z,320.56
2022-12-20T06:28:13.410Z,340.36
2022-12-20T06:29:17.776Z,326.63
2022-12-20T06:30:34.086Z,333.92
2022-12-20T06:31:58.124Z,320.77
2022-12-20T06:33:06.041Z,341.61
2022-12-20T06:34:09.597Z,354.56
2022-12-20T06:35:20.418Z,332.86
2022-12-20T06:36:28.861Z,310.41
2022-12-20T06:37:32.563Z,280.21
2022-12-20T06:38:38.734Z,309.67
2022-12-20T06:39:44.909Z,310.20
2022-12-20T06:40:50.927Z,328.26
2022-12-20T06:41:55.347Z,307.74
2022-12-20T06:43:01.392Z,303.42
2022-12-20T06:44:05.312Z,293.21
2022-12-20T06:45:13.427Z,281.45
2022-12-20T06:46:17.517Z,267.08
2022-12-20T06:47:25.376Z,274.42
2022-12-20T06:48:28.801Z,282.43
2022-12-20T06:49:35.331Z,299.93
2022-12-20T06:50:52.094Z,300.27
2022-12-20T06:52:01.907Z,311.22
2022-12-20T06:53:20.136Z,325.04
2022-12-20T06:54:23.531Z,314.39
2022-12-20T06:55:32.615Z,300.70
2022-12-20T06:56:41.091Z,297.65
2022-12-20T06:57:49.270Z,296.30
2022-12-20T06:58:53.510Z,277.27
2022-12-20T06:59:59.589Z,285.42
2022-12-20T07:01:03.259Z,292.42
2022-12-20T07:02:09.698Z,284.31
2022-12-20T07:03:16.774Z,343.51
2022-12-20T07:04:21.545Z,346.29
2022-12-20T07:05:27.756Z,360.60
2022-12-20T07:06:31.232Z,359.46
2022-12-20T07:07:44.572Z,371.53
2022-12-20T07:08:51.225Z,354.16
2022-12-20T07:09:57.951Z,338.26
2022-12-20T07:11:12.163Z,310.53
2022-12-20T07:12:15.473Z,309.06
2022-12-20T07:13:21.770Z,320.00
2022-12-20T07:14:27.836Z,313.63
2022-12-20T07:15:32.620Z,329.33
2022-12-20T07:16:39.124Z,311.62
2022-12-20T07:17:44.980Z,311.55
2022-12-20T07:18:50.904Z,304.22
2022-12-20T07:19:56.931Z,311.99
2022-12-20T07:21:02.656Z,322.49
2022-12-20T07:22:09.239Z,325.88
2022-12-20T07:23:12.622Z,333.73
2022-12-20T07:24:19.166Z,300.89
2022-12-20T07:25:22.846Z,305.06
2022-12-20T07:26:32.273Z,301.56
2022-12-20T07:27:35.983Z,302.74
2022-12-20T07:28:43.305Z,325.70
2022-12-20T07:29:49.347Z,364.08
2022-12-20T07:30:53.108Z,351.14
2022-12-20T07:32:00.025Z,319.84
2022-12-20T07:33:03.379Z,292.03
2022-12-20T07:34:09.463Z,304.99
2022-12-20T07:35:17.279Z,309.28
2022-12-20T07:36:23.419Z,328.96
2022-12-20T07:37:32.159Z,337.73
2022-12-20T07:38:38.543Z,373.73
2022-12-20T07:39:44.743Z,333.00
2022-12-20T07:40:48.165Z,340.51
2022-12-20T07:42:00.177Z,373.19
2022-12-20T07:43:04.474Z,383.85
2022-12-20T07:44:10.385Z,376.42
2022-12-20T07:45:13.680Z,375.74
2022-12-20T07:46:21.770Z,374.60
2022-12-20T07:47:27.889Z,381.30
2022-12-20T07:48:36.344Z,344.44
2022-12-20T07:49:43.283Z,348.58
2022-12-20T07:50:47.233Z,370.25
2022-12-20T07:52:01.003Z,346.94
2022-12-20T07:53:12.564Z,347.61
2022-12-20T07:54:27.392Z,349.12
2022-12-20T07:55:32.534Z,328.17
2022-12-20T07:56:46.070Z,324.04
2022-12-20T07:58:05.132Z,384.71
2022-12-20T07:59:15.628Z,363.22
2022-12-20T08:00:23.230Z,351.33
2022-12-20T08:01:32.174Z,352.60
2022-12-20T08:02:47.566Z,328.38
2022-12-20T08:04:03.616Z,294.97
2022-12-20T08:05:14.009Z,333.11
2022-12-20T08:06:23.037Z,312.14
2022-12-20T08:07:33.270Z,318.64
2022-12-20T08:08:46.338Z,297.86
2022-12-20T08:09:52.563Z,301.35
2022-12-20T08:10:59.437Z,323.30
2022-12-20T08:12:07.516Z,340.71
2022-12-20T08:13:14.409Z,360.02
2022-12-20T08:14:24.791Z,349.32
2022-12-20T08:15:30.419Z,354.74
2022-12-20T08:16:36.427Z,412.17
2022-12-20T08:17:40.504Z,359.06
2022-12-20T08:18:46.516Z,302.43
2022-12-20T08:19:52.676Z,293.41
2022-12-20T08:20:59.440Z,278.09
2022-12-20T08:22:05.556Z,309.37
2022-12-20T08:23:12.260Z,320.29
2022-12-20T08:24:18.154Z,304.55
2022-12-20T08:25:25.134Z,319.25
2022-12-20T08:26:31.188Z,368.68
2022-12-20T08:27:37.426Z,324.99
2022-12-20T08:28:47.367Z,307.46
2022-12-20T08:29:50.826Z,293.39
2022-12-20T08:30:56.898Z,289.85
2022-12-20T08:32:02.976Z,301.11
2022-12-20T08:33:09.103Z,321.27
2022-12-20T08:34:15.933Z,335.96
2022-12-20T08:35:21.994Z,320.58
2022-12-20T08:36:25.412Z,330.83
2022-12-20T08:37:31.461Z,308.09
2022-12-20T08:38:37.919Z,330.74
2022-12-20T08:39:44.626Z,325.86
2022-12-20T08:40:48.055Z,321.53
2022-12-20T08:41:54.046Z,323.40
2022-12-20T08:42:58.863Z,322.94
2022-12-20T08:44:07.846Z,316.31
2022-12-20T08:45:15.541Z,323.43
2022-12-20T08:46:21.610Z,337.03
2022-12-20T08:47:24.974Z,339.02
2022-12-20T08:48:32.701Z,315.03
2022-12-20T08:49:43.972Z,304.32
2022-12-20T08:51:01.406Z,308.00
2022-12-20T08:52:07.656Z,318.65
2022-12-20T08:53:13.602Z,305.03
2022-12-20T08:54:19.798Z,283.10
2022-12-20T08:55:29.414Z,306.24
2022-12-20T08:56:36.508Z,299.93
2022-12-20T08:57:42.404Z,293.46
2022-12-20T08:58:46.655Z,297.85
2022-12-20T08:59:55.211Z,302.96
2022-12-20T09:01:06.670Z,303.55
2022-12-20T09:02:13.948Z,301.42
2022-12-20T09:03:20.077Z,330.56
2022-12-20T09:04:26.055Z,303.32
2022-12-20T09:05:32.066Z,321.81
2022-12-20T09:06:38.813Z,328.95
2022-12-20T09:07:45.597Z,331.41
2022-12-20T09:08:49.902Z,294.37
2022-12-20T09:09:55.895Z,328.03
2022-12-20T09:11:09.537Z,304.33
2022-12-20T09:12:13.109Z,360.97
2022-12-20T09:13:20.173Z,371.44
2022-12-20T09:14:26.128Z,342.45
2022-12-20T09:15:36.595Z,317.67
2022-12-20T09:16:42.602Z,313.61
2022-12-20T09:17:48.526Z,302.50
2022-12-20T09:19:00.742Z,303.66
2022-12-20T09:20:12.065Z,300.31
2022-12-20T09:21:22.019Z,290.77
2022-12-20T09:22:28.104Z,296.57
2022-12-20T09:23:33.091Z,315.12
2022-12-20T09:24:41.519Z,305.92
2022-12-20T09:25:50.226Z,292.58
2022-12-20T09:27:00.049Z,283.33
2022-12-20T09:28:06.178Z,288.81
2022-12-20T09:29:12.320Z,288.83
2022-12-20T09:30:19.740Z,293.76
2022-12-20T09:31:30.012Z,302.20
2022-12-20T09:32:33.676Z,295.67
2022-12-20T09:33:39.716Z,304.62
2022-12-20T09:34:43.203Z,305.16
2022-12-20T09:35:50.716Z,300.01
2022-12-20T09:36:54.191Z,312.50
2022-12-20T09:38:01.497Z,305.38
2022-12-20T09:39:07.798Z,296.52
2022-12-20T09:40:21.291Z,315.50
2022-12-20T09:41:37.450Z,304.80
2022-12-20T09:42:44.239Z,303.60
2022-12-20T09:43:48.148Z,302.36
2022-12-20T09:44:54.657Z,297.44
2022-12-20T09:46:04.960Z,303.46
2022-12-20T09:47:23.747Z,309.06
2022-12-20T09:48:36.802Z,294.99
2022-12-20T09:49:49.054Z,313.47
2022-12-20T09:51:15.830Z,347.33
2022-12-20T09:52:50.743Z,388.08
2022-12-20T09:54:18.517Z,378.74
2022-12-20T09:55:37.874Z,372.74
2022-12-20T09:57:04.580Z,352.96
2022-12-20T09:58:45.969Z,371.16
2022-12-20T09:59:52.210Z,343.10
2022-12-20T10:00:58.404Z,338.21
2022-12-20T10:02:19.487Z,310.45
2022-12-20T10:03:39.015Z,292.70
2022-12-20T10:04:45.539Z,292.67
2022-12-20T10:05:57.767Z,268.44
2022-12-20T10:07:39.253Z,272.23
2022-12-20T10:08:56.439Z,267.83
2022-12-20T10:10:35.766Z,246.86
2022-12-20T10:12:07.208Z,255.16
2022-12-20T10:13:49.657Z,265.95
2022-12-20T10:15:21.865Z,254.28
2022-12-20T10:16:48.021Z,280.43
2022-12-20T10:18:19.847Z,268.53
2022-12-20T10:20:08.742Z,267.93
2022-12-20T10:21:35.816Z,296.86
2022-12-20T10:22:55.643Z,280.33
2022-12-20T10:24:07.317Z,271.53
2022-12-20T10:25:23.513Z,263.40
2022-12-20T10:26:31.679Z,257.09
2022-12-20T10:27:39.001Z,264.55
2022-12-20T10:28:50.753Z,256.78
2022-12-20T10:30:00.913Z,280.64
2022-12-20T10:31:14.316Z,269.04
2022-12-20T10:32:29.333Z,297.26
2022-12-20T10:33:33.924Z,281.83
2022-12-20T10:34:48.473Z,282.23
2022-12-20T10:35:52.580Z,278.87
2022-12-20T10:37:16.898Z,297.06
2022-12-20T10:38:23.070Z,329.05
2022-12-20T10:39:46.202Z,329.90
2022-12-20T10:41:23.035Z,287.15
2022-12-20T10:42:43.496Z,275.61
2022-12-20T10:43:57.753Z,277.09
2022-12-20T10:45:02.804Z,264.85
2022-12-20T10:46:12.917Z,266.71
2022-12-20T10:47:40.930Z,263.66
2022-12-20T10:48:51.933Z,273.65
2022-12-20T10:50:18.174Z,278.48
2022-12-20T10:51:26.057Z,297.49
2022-12-20T10:52:29.736Z,280.48
2022-12-20T10:53:36.076Z,274.27
2022-12-20T10:54:46.528Z,274.51
2022-12-20T10:55:52.279Z,269.93
2022-12-20T10:57:02.402Z,249.71
2022-12-20T10:58:18.512Z,266.09
2022-12-20T10:59:39.888Z,294.86
2022-12-20T11:00:47.532Z,290.14
2022-12-20T11:01:52.263Z,292.48
2022-12-20T11:03:13.499Z,282.21
2022-12-20T11:04:32.568Z,260.61
2022-12-20T11:05:39.010Z,280.45
2022-12-20T11:06:48.658Z,270.00
2022-12-20T11:09:32.715Z,281.13
2022-12-20T11:10:36.545Z,272.84
2022-12-20T11:11:42.567Z,281.71
2022-12-20T11:12:56.938Z,283.10
2022-12-20T11:14:18.892Z,287.20
2022-12-20T11:15:34.176Z,301.34
2022-12-20T11:16:44.712Z,296.10
2022-12-20T11:17:53.761Z,292.92
2022-12-20T11:19:25.375Z,288.50
2022-12-20T11:20:48.490Z,288.57
2022-12-20T11:22:12.712Z,286.61
2022-12-20T11:23:38.864Z,288.14
2022-12-20T11:25:02.768Z,286.13
2022-12-20T11:26:39.430Z,290.03
2022-12-20T11:28:09.351Z,277.34
2022-12-20T11:29:50.723Z,281.99
2022-12-20T11:31:18.887Z,284.56
2022-12-20T11:32:53.324Z,283.73
2022-12-20T11:34:20.040Z,295.08
2022-12-20T11:35:42.078Z,299.06
2022-12-20T11:37:20.692Z,317.34
2022-12-20T11:38:45.670Z,357.41
2022-12-20T11:40:24.840Z,361.87
2022-12-20T11:41:47.813Z,366.61
2022-12-20T11:43:17.462Z,358.74
2022-12-20T11:44:55.357Z,318.83
2022-12-20T11:46:31.045Z,348.76
2022-12-20T11:48:10.071Z,342.80
2022-12-20T11:50:03.153Z,353.03
2022-12-20T11:51:27.169Z,355.44
2022-12-20T11:52:49.738Z,344.05
2022-12-20T11:54:13.791Z,410.03
2022-12-20T11:55:27.901Z,366.77
2022-12-20T11:56:44.770Z,331.86
2022-12-20T11:58:21.074Z,329.33
2022-12-20T11:59:40.676Z,315.55
2022-12-20T12:00:59.276Z,314.46
2022-12-20T12:02:16.167Z,323.54
2022-12-20T12:03:30.856Z,348.11
2022-12-20T12:04:47.072Z,351.70
2022-12-20T12:05:59.205Z,355.73
2022-12-20T12:07:16.641Z,313.37
2022-12-20T12:08:34.530Z,349.14
2022-12-20T12:09:51.278Z,340.29
2022-12-20T12:11:25.719Z,303.97
2022-12-20T12:12:45.669Z,320.60
2022-12-20T12:13:51.476Z,306.55
2022-12-20T12:15:14.317Z,306.26
2022-12-20T12:16:30.882Z,337.12
2022-12-20T12:17:50.361Z,360.17
2022-12-20T12:18:56.948Z,323.19
2022-12-20T12:20:29.925Z,312.43
2022-12-20T12:21:45.836Z,371.86
2022-12-20T12:23:01.713Z,355.11
2022-12-20T12:24:26.983Z,335.42
2022-12-20T12:25:30.436Z,356.55
2022-12-20T12:26:41.212Z,414.32
2022-12-20T12:27:48.724Z,428.51
2022-12-20T12:28:57.274Z,425.74
2022-12-20T12:30:03.447Z,426.76
2022-12-20T12:31:21.676Z,397.50
2022-12-20T12:32:44.134Z,356.15
2022-12-20T12:34:08.807Z,336.48
2022-12-20T12:35:56.292Z,344.93
2022-12-20T12:37:51.160Z,377.44
2022-12-20T12:39:49.530Z,378.62
2022-12-20T12:41:43.277Z,332.92
2022-12-20T12:43:39.083Z,362.33
2022-12-20T12:44:57.748Z,345.31
2022-12-20T12:46:14.675Z,377.19
2022-12-20T12:47:39.900Z,361.23
2022-12-20T12:48:57.698Z,356.83
2022-12-20T12:50:08.246Z,323.82
2022-12-20T12:51:22.227Z,325.43
2022-12-20T12:52:46.603Z,304.90
2022-12-20T12:53:56.934Z,304.35
2022-12-20T12:55:03.194Z,304.93
2022-12-20T12:56:45.475Z,307.33
2022-12-20T12:57:57.928Z,317.00
2022-12-20T12:59:54.729Z,312.55
2022-12-20T13:01:05.205Z,310.95
2022-12-20T13:02:37.546Z,313.29
2022-12-20T13:04:09.731Z,320.08
2022-12-20T13:05:38.675Z,330.73
2022-12-20T13:07:00.340Z,324.82
2022-12-20T13:08:17.712Z,312.11
2022-12-20T13:09:38.144Z,320.88
2022-12-20T13:11:06.199Z,323.56
2022-12-20T13:13:02.879Z,319.71
2022-12-20T13:14:30.895Z,347.25
2022-12-20T13:16:16.908Z,352.27
2022-12-20T13:17:53.073Z,344.28
2022-12-20T13:19:16.611Z,378.92
2022-12-20T13:20:24.541Z,391.62
2022-12-20T13:21:40.463Z,405.10
2022-12-20T13:23:17.987Z,387.26
2022-12-20T13:24:55.235Z,430.16
2022-12-20T13:25:58.887Z,428.21
2022-12-20T13:27:24.636Z,340.03
2022-12-20T13:28:49.631Z,322.73
2022-12-20T13:30:19.083Z,327.72
2022-12-20T13:31:36.972Z,361.67
2022-12-20T13:33:15.832Z,397.29
2022-12-20T13:34:41.553Z,373.90
2022-12-20T13:36:19.684Z,339.35
2022-12-20T13:37:57.361Z,327.82
2022-12-20T13:39:33.650Z,342.04
2022-12-20T13:40:45.616Z,361.04
2022-12-20T13:42:18.573Z,343.58
2022-12-20T13:43:37.225Z,338.97
2022-12-20T13:44:48.790Z,373.40
2022-12-20T13:46:06.242Z,392.75
2022-12-20T13:47:37.680Z,365.33
2022-12-20T13:48:54.207Z,404.15
2022-12-20T13:50:05.808Z,375.56
2022-12-20T13:51:10.683Z,377.28
2022-12-20T13:52:33.158Z,375.04
2022-12-20T13:53:42.436Z,358.70
2022-12-20T13:54:50.790Z,374.73
2022-12-20T13:55:59.236Z,373.15
2022-12-20T13:57:06.701Z,429.92
2022-12-20T13:58:25.166Z,404.17
2022-12-20T13:59:33.837Z,376.35
2022-12-20T14:00:41.520Z,353.05
2022-12-20T14:01:57.062Z,354.89
2022-12-20T14:03:03.695Z,370.12
2022-12-20T14:04:10.959Z,366.68
2022-12-20T14:05:26.728Z,356.96
2022-12-20T14:06:33.186Z,373.29
2022-12-20T14:07:41.992Z,363.82
2022-12-20T14:08:52.187Z,351.85
2022-12-20T14:10:02.968Z,390.49
2022-12-20T14:11:16.047Z,426.25
2022-12-20T14:12:27.380Z,476.14
2022-12-20T14:13:39.678Z,432.28
2022-12-20T14:14:49.999Z,439.10
2022-12-20T14:15:58.646Z,440.03
2022-12-20T14:17:19.848Z,406.13
2022-12-20T14:18:29.049Z,436.36
2022-12-20T14:19:33.351Z,420.27
2022-12-20T14:20:42.408Z,412.59
2022-12-20T14:21:50.594Z,371.82
2022-12-20T14:23:06.439Z,396.65
2022-12-20T14:24:21.701Z,376.94
2022-12-20T14:25:38.706Z,381.84
2022-12-20T14:26:48.649Z,393.09
2022-12-20T14:27:52.295Z,435.98
2022-12-20T14:29:07.981Z,436.86
2022-12-20T14:30:35.004Z,389.13
2022-12-20T14:31:46.666Z,413.30
2022-12-20T14:32:50.967Z,392.19
2022-12-20T14:34:10.711Z,360.11
2022-12-20T14:35:21.564Z,366.44
2022-12-20T14:36:27.611Z,381.58
2022-12-20T14:37:36.474Z,363.03
2022-12-20T14:38:45.382Z,363.43
2022-12-20T14:40:19.586Z,385.15
2022-12-20T14:41:39.277Z,414.51
2022-12-20T14:42:46.644Z,406.40
2022-12-20T14:44:07.132Z,387.75
2022-12-20T14:45:21.162Z,401.70
2022-12-20T14:46:27.520Z,396.39
2022-12-20T14:47:34.533Z,386.73
2022-12-20T14:48:41.502Z,430.63
2022-12-20T14:49:55.463Z,413.19
2022-12-20T14:51:01.604Z,422.84
2022-12-20T14:52:20.928Z,422.03
2022-12-20T14:53:30.694Z,431.28
2022-12-20T14:56:26.433Z,405.25
2022-12-20T14:57:48.999Z,400.88
2022-12-20T14:59:17.532Z,397.17
2022-12-20T15:00:28.684Z,423.53
2022-12-20T15:01:35.837Z,403.80
2022-12-20T15:02:55.474Z,411.85
2022-12-20T15:04:01.010Z,417.68
2022-12-20T15:05:27.658Z,420.42